createdAt,value
2023-01-22T00:00:11.148Z,99197.78
2023-01-22T00:02:39.646Z,99199.13
2023-01-22T00:05:07.344Z,99197.88
2023-01-22T00:07:34.523Z,99200.37
2023-01-22T00:10:01.674Z,99201.41
2023-01-22T00:12:29.093Z,99199.66
2023-01-22T00:14:56.232Z,99199.44
2023-01-22T00:17:23.470Z,99193.75
2023-01-22T00:19:51.031Z,99198.31
2023-01-22T00:22:18.180Z,99205.94
2023-01-22T00:24:45.319Z,99208.75
2023-01-22T00:27:12.752Z,99212.12
2023-01-22T00:29:40.986Z,99218.44
2023-01-22T00:32:08.318Z,99204.84
2023-01-22T00:34:35.810Z,99208.59
2023-01-22T00:37:02.967Z,99208.50
2023-01-22T00:39:30.130Z,99209.59
2023-01-22T00:41:59.480Z,99212.41
2023-01-22T00:44:26.785Z,99215.78
2023-01-22T00:46:54.484Z,99205.97
2023-01-22T00:49:21.917Z,99214.75
2023-01-22T00:51:49.045Z,99213.38
2023-01-22T00:54:16.167Z,99208.84
2023-01-22T00:56:43.605Z,99220.03
2023-01-22T00:59:10.832Z,99226.19
2023-01-22T01:01:38.724Z,99223.28
2023-01-22T01:04:06.380Z,99227.38
2023-01-22T01:06:33.687Z,99214.56
2023-01-22T01:09:01.770Z,99226.16
2023-01-22T01:11:29.826Z,99224.72
2023-01-22T01:13:57.040Z,99226.72
2023-01-22T01:16:26.649Z,99221.22
2023-01-22T01:18:55.632Z,99225.66
2023-01-22T01:21:23.071Z,99223.22
2023-01-22T01:23:50.221Z,99235.44
2023-01-22T01:26:18.599Z,99227.12
2023-01-22T01:28:45.808Z,99229.78
2023-01-22T01:31:14.065Z,99240.88
2023-01-22T01:33:41.969Z,99234.88
2023-01-22T01:36:14.016Z,99238.69
2023-01-22T01:38:42.312Z,99241.44
2023-01-22T01:41:10.262Z,99236.22
2023-01-22T01:43:37.447Z,99240.22
2023-01-22T01:46:05.351Z,99229.44
2023-01-22T01:48:42.358Z,99226.31
2023-01-22T01:51:15.229Z,99233.28
2023-01-22T01:53:43.257Z,99230.91
2023-01-22T01:56:14.484Z,99227.41
2023-01-22T01:58:41.895Z,99227.78
2023-01-22T02:01:11.250Z,99228.44
2023-01-22T02:03:39.554Z,99225.78
2023-01-22T02:06:09.502Z,99224.72
2023-01-22T02:08:36.775Z,99219.72
2023-01-22T02:11:04.408Z,99221.91
2023-01-22T02:13:32.436Z,99225.22
2023-01-22T02:15:59.897Z,99224.63
2023-01-22T02:18:27.453Z,99219.22
2023-01-22T02:20:58.611Z,99216.87
2023-01-22T02:23:27.107Z,99216.31
2023-01-22T02:25:55.728Z,99215.16
2023-01-22T02:28:23.073Z,99215.97
2023-01-22T02:30:50.651Z,99215.56
2023-01-22T02:33:17.883Z,99212.16
2023-01-22T02:35:45.219Z,99214.47
2023-01-22T02:38:14.179Z,99211.44
2023-01-22T02:40:49.289Z,99211.16
2023-01-22T02:43:19.901Z,99207.09
2023-01-22T02:45:47.168Z,99205.53
2023-01-22T02:48:14.512Z,99199.88
2023-01-22T02:50:42.059Z,99212.09
2023-01-22T02:53:09.470Z,99205.81
2023-01-22T02:55:38.399Z,99219.41
2023-01-22T02:58:07.239Z,99207.81
2023-01-22T03:00:34.489Z,99202.38
2023-01-22T03:03:07.709Z,99209.50
2023-01-22T03:05:35.235Z,99205.16
2023-01-22T03:08:04.432Z,99198.53
2023-01-22T03:10:31.630Z,99207.41
2023-01-22T03:13:18.787Z,99204.78
2023-01-22T03:16:04.678Z,99196.81
2023-01-22T03:18:50.934Z,99184.81
2023-01-22T03:21:20.313Z,99181.56
2023-01-22T03:23:52.119Z,99196.22
2023-01-22T03:26:19.823Z,99189.53
2023-01-22T03:28:47.514Z,99190.66
2023-01-22T03:31:16.102Z,99199.69
2023-01-22T03:33:43.641Z,99195.47
2023-01-22T03:36:12.733Z,99197.28
2023-01-22T03:38:40.547Z,99196.44
2023-01-22T03:41:10.107Z,99203.19
2023-01-22T03:43:37.737Z,99201.22
2023-01-22T03:46:15.954Z,99188.69
2023-01-22T03:48:43.707Z,99182.22
2023-01-22T03:51:12.494Z,99185.50
2023-01-22T03:53:40.052Z,99176.25
2023-01-22T03:56:08.872Z,99183.81
2023-01-22T03:58:36.881Z,99182.34
2023-01-22T04:01:08.855Z,99184.47
2023-01-22T04:03:36.566Z,99190.81
2023-01-22T04:06:04.160Z,99196.69
2023-01-22T04:08:33.703Z,99191.66
2023-01-22T04:11:01.497Z,99192.13
2023-01-22T04:13:29.515Z,99199.13
2023-01-22T04:15:56.882Z,99193.41
2023-01-22T04:18:28.153Z,99191.94
2023-01-22T04:20:56.489Z,99187.22
2023-01-22T04:23:25.297Z,99185.09
2023-01-22T04:25:53.057Z,99181.16
2023-01-22T04:28:20.545Z,99186.63
2023-01-22T04:30:48.869Z,99185.53
2023-01-22T04:33:23.253Z,99195.41
2023-01-22T04:35:54.152Z,99195.06
2023-01-22T04:38:21.608Z,99202.31
2023-01-22T04:40:49.823Z,99201.94
2023-01-22T04:43:16.982Z,99198.72
2023-01-22T04:45:44.465Z,99187.16
2023-01-22T04:48:12.730Z,99191.00
2023-01-22T04:50:40.208Z,99187.16
2023-01-22T04:53:07.764Z,99197.78
2023-01-22T04:55:35.185Z,99192.28
2023-01-22T04:58:02.679Z,99188.66
2023-01-22T05:00:30.305Z,99189.03
2023-01-22T05:02:58.600Z,99187.75
2023-01-22T05:05:27.401Z,99188.38
2023-01-22T05:07:54.909Z,99201.94
2023-01-22T05:10:22.800Z,99214.50
2023-01-22T05:12:50.484Z,99201.41
2023-01-22T05:15:24.418Z,99208.25
2023-01-22T05:17:52.790Z,99220.84
2023-01-22T05:20:21.014Z,99223.25
2023-01-22T05:22:48.685Z,99227.69
2023-01-22T05:25:16.931Z,99225.06
2023-01-22T05:27:44.464Z,99226.84
2023-01-22T05:30:12.787Z,99231.84
2023-01-22T05:32:40.223Z,99242.25
2023-01-22T05:35:08.019Z,99246.47
2023-01-22T05:37:35.405Z,99248.88
2023-01-22T05:40:05.391Z,99248.53
2023-01-22T05:42:33.551Z,99257.69
2023-01-22T05:45:01.376Z,99262.37
2023-01-22T05:47:29.637Z,99265.28
2023-01-22T05:49:59.109Z,99260.56
2023-01-22T05:52:27.353Z,99267.25
2023-01-22T05:54:54.593Z,99279.94
2023-01-22T05:57:22.781Z,99272.72
2023-01-22T05:59:50.151Z,99278.31
2023-01-22T06:02:17.369Z,99275.78
2023-01-22T06:04:44.938Z,99267.59
2023-01-22T06:07:13.477Z,99266.72
2023-01-22T06:09:40.686Z,99264.09
2023-01-22T06:12:08.276Z,99280.28
2023-01-22T06:14:35.481Z,99282.47
2023-01-22T06:17:03.394Z,99281.38
2023-01-22T06:19:33.886Z,99289.63
2023-01-22T06:22:01.092Z,99296.31
2023-01-22T06:24:28.966Z,99299.53
2023-01-22T06:26:56.596Z,99294.75
2023-01-22T06:29:26.021Z,99301.75
2023-01-22T06:31:55.038Z,99315.59
2023-01-22T06:34:22.613Z,99311.84
2023-01-22T06:36:49.776Z,99326.16
2023-01-22T06:39:17.860Z,99336.50
2023-01-22T06:41:47.103Z,99325.16
2023-01-22T06:44:14.942Z,99329.63
2023-01-22T06:46:42.596Z,99324.53
2023-01-22T06:49:10.591Z,99325.44
2023-01-22T06:51:39.114Z,99337.44
2023-01-22T06:54:06.956Z,99335.81
2023-01-22T06:56:35.677Z,99335.63
2023-01-22T06:59:04.055Z,99338.94
2023-01-22T07:01:31.252Z,99336.63
2023-01-22T07:03:58.808Z,99341.88
2023-01-22T07:06:26.005Z,99346.59
2023-01-22T07:08:54.074Z,99348.16
2023-01-22T07:11:21.492Z,99355.88
2023-01-22T07:13:48.641Z,99355.94
2023-01-22T07:16:15.828Z,99357.75
2023-01-22T07:18:43.313Z,99356.62
2023-01-22T07:21:10.467Z,99371.53
2023-01-22T07:23:37.631Z,99369.97
2023-01-22T07:26:05.055Z,99379.78
2023-01-22T07:28:33.067Z,99387.19
2023-01-22T07:31:00.903Z,99386.66
2023-01-22T07:33:29.626Z,99393.91
2023-01-22T07:35:57.011Z,99392.22
2023-01-22T07:38:24.247Z,99401.22
2023-01-22T07:40:51.703Z,99403.75
2023-01-22T07:43:18.861Z,99401.13
2023-01-22T07:45:46.045Z,99396.59
2023-01-22T07:48:13.990Z,99403.38
2023-01-22T07:50:41.224Z,99411.41
2023-01-22T07:53:08.839Z,99415.72
2023-01-22T07:55:37.407Z,99406.16
2023-01-22T07:58:05.791Z,99409.75
2023-01-22T08:00:34.755Z,99400.44
2023-01-22T08:03:03.818Z,99398.87
2023-01-22T08:05:30.960Z,99392.44
2023-01-22T08:07:58.304Z,99396.16
2023-01-22T08:10:25.823Z,99405.63
2023-01-22T08:12:53.011Z,99410.28
2023-01-22T08:15:20.156Z,99422.03
2023-01-22T08:17:48.786Z,99431.88
2023-01-22T08:20:16.338Z,99446.13
2023-01-22T08:22:45.447Z,99437.25
2023-01-22T08:25:13.063Z,99449.06
2023-01-22T08:27:40.491Z,99449.41
2023-01-22T08:30:08.803Z,99456.19
2023-01-22T08:32:36.318Z,99452.41
2023-01-22T08:35:03.546Z,99466.69
2023-01-22T08:37:30.750Z,99465.72
2023-01-22T08:39:58.260Z,99474.59
2023-01-22T08:42:25.400Z,99465.81
2023-01-22T08:44:52.568Z,99476.03
2023-01-22T08:47:19.994Z,99476.97
2023-01-22T08:49:47.127Z,99482.16
2023-01-22T08:52:14.289Z,99485.16
2023-01-22T08:54:41.857Z,99493.28
2023-01-22T08:57:08.990Z,99494.81
2023-01-22T08:59:36.116Z,99495.09
2023-01-22T09:02:03.580Z,99505.94
2023-01-22T09:04:30.796Z,99502.09
2023-01-22T09:06:57.934Z,99499.44
2023-01-22T09:09:26.163Z,99496.56
2023-01-22T09:11:53.355Z,99504.59
2023-01-22T09:14:20.525Z,99508.22
2023-01-22T09:16:49.045Z,99504.47
2023-01-22T09:19:16.340Z,99510.97
2023-01-22T09:21:43.504Z,99513.16
2023-01-22T09:24:10.964Z,99508.50
2023-01-22T09:26:38.167Z,99522.59
2023-01-22T09:29:06.373Z,99519.44
2023-01-22T09:31:34.466Z,99520.78
2023-01-22T09:34:01.792Z,99520.22
2023-01-22T09:36:29.035Z,99523.50
2023-01-22T09:38:56.523Z,99531.88
2023-01-22T09:41:37.394Z,99517.66
2023-01-22T09:44:17.223Z,99529.44
2023-01-22T09:46:45.971Z,99526.59
2023-01-22T09:49:32.346Z,99537.38
2023-01-22T09:51:59.959Z,99535.37
2023-01-22T09:54:28.428Z,99532.22
2023-01-22T09:56:56.787Z,99530.50
2023-01-22T09:59:25.310Z,99524.94
2023-01-22T10:01:53.563Z,99535.09
2023-01-22T10:04:27.104Z,99531.62
2023-01-22T10:06:55.563Z,99532.75
2023-01-22T10:09:24.564Z,99534.56
2023-01-22T10:11:52.943Z,99537.69
2023-01-22T10:14:20.777Z,99533.84
2023-01-22T10:16:49.169Z,99539.59
2023-01-22T10:19:22.715Z,99540.16
2023-01-22T10:22:00.339Z,99537.06
2023-01-22T10:24:28.337Z,99541.53
2023-01-22T10:26:56.075Z,99539.25
2023-01-22T10:29:29.460Z,99536.25
2023-01-22T10:32:16.008Z,99545.59
2023-01-22T10:34:43.157Z,99544.37
2023-01-22T10:37:11.307Z,99544.69
2023-01-22T10:39:39.791Z,99565.69
2023-01-22T10:42:06.984Z,99557.41
2023-01-22T10:44:34.504Z,99555.03
2023-01-22T10:47:08.871Z,99554.47
2023-01-22T10:49:36.640Z,99558.97
2023-01-22T10:52:07.203Z,99551.44
2023-01-22T10:54:35.508Z,99549.84
2023-01-22T10:57:23.309Z,99554.56
2023-01-22T10:59:51.542Z,99556.91
2023-01-22T11:02:21.057Z,99571.81
2023-01-22T11:04:48.255Z,99565.75
2023-01-22T11:07:27.202Z,99563.44
2023-01-22T11:10:03.718Z,99563.59
2023-01-22T11:12:35.934Z,99556.69
2023-01-22T11:15:11.668Z,99562.00
2023-01-22T11:17:39.452Z,99561.13
2023-01-22T11:20:16.944Z,99567.00
2023-01-22T11:22:45.521Z,99563.69
2023-01-22T11:25:13.006Z,99561.91
2023-01-22T11:27:53.306Z,99560.06
2023-01-22T11:30:24.280Z,99563.81
2023-01-22T11:32:51.730Z,99574.94
2023-01-22T11:35:24.802Z,99583.38
2023-01-22T11:37:58.669Z,99584.69
2023-01-22T11:40:29.807Z,99584.34
2023-01-22T11:43:09.818Z,99584.06
2023-01-22T11:45:50.596Z,99580.41
2023-01-22T11:48:18.211Z,99590.16
2023-01-22T11:50:47.616Z,99585.91
2023-01-22T11:53:18.379Z,99594.00
2023-01-22T11:56:05.108Z,99594.34
2023-01-22T11:58:44.598Z,99596.25
2023-01-22T12:01:24.120Z,99590.41
2023-01-22T12:03:54.693Z,99593.25
2023-01-22T12:06:54.792Z,99595.75
2023-01-22T12:09:32.477Z,99599.84
2023-01-22T12:12:13.139Z,99601.44
2023-01-22T12:14:59.615Z,99615.41
2023-01-22T12:17:33.133Z,99616.59
2023-01-22T12:20:00.743Z,99617.25
2023-01-22T12:22:46.863Z,99615.69
2023-01-22T12:25:14.768Z,99623.53
2023-01-22T12:27:47.856Z,99624.44
2023-01-22T12:30:19.208Z,99618.19
2023-01-22T12:32:48.777Z,99619.97
2023-01-22T12:35:17.741Z,99625.00
2023-01-22T12:37:46.769Z,99628.78
2023-01-22T12:40:20.241Z,99630.72
2023-01-22T12:42:50.218Z,99623.25
2023-01-22T12:45:17.765Z,99624.09
2023-01-22T12:47:45.235Z,99623.16
2023-01-22T12:50:17.140Z,99621.13
2023-01-22T12:52:44.759Z,99625.56
2023-01-22T12:55:22.933Z,99634.03
2023-01-22T12:57:50.517Z,99636.97
2023-01-22T13:00:23.857Z,99630.69
2023-01-22T13:02:51.615Z,99640.44
2023-01-22T13:05:20.862Z,99645.13
2023-01-22T13:07:49.517Z,99641.09
2023-01-22T13:10:21.066Z,99638.06
2023-01-22T13:12:49.604Z,99635.87
2023-01-22T13:15:24.656Z,99643.81
2023-01-22T13:18:06.439Z,99645.56
2023-01-22T13:20:46.715Z,99661.44
2023-01-22T13:23:14.288Z,99657.44
2023-01-22T13:25:43.128Z,99667.94
2023-01-22T13:28:16.092Z,99672.66
2023-01-22T13:30:44.224Z,99676.25
2023-01-22T13:33:13.240Z,99686.16
2023-01-22T13:35:42.006Z,99685.28
2023-01-22T13:38:17.359Z,99698.56
2023-01-22T13:40:51.251Z,99709.06
2023-01-22T13:43:20.145Z,99701.16
2023-01-22T13:45:47.589Z,99713.56
2023-01-22T13:48:16.617Z,99708.88
2023-01-22T13:51:03.498Z,99715.31
2023-01-22T13:53:32.243Z,99715.88
2023-01-22T13:56:01.607Z,99725.28
2023-01-22T13:58:46.526Z,99733.09
2023-01-22T14:01:34.620Z,99742.09
2023-01-22T14:04:04.587Z,99740.34
2023-01-22T14:06:42.901Z,99738.00
2023-01-22T14:09:10.939Z,99727.97
2023-01-22T14:11:39.928Z,99732.56
2023-01-22T14:14:18.244Z,99732.38
2023-01-22T14:16:47.828Z,99735.41
2023-01-22T14:19:15.843Z,99745.69
2023-01-22T14:21:44.889Z,99749.81
2023-01-22T14:24:14.166Z,99744.25
2023-01-22T14:26:42.300Z,99744.97
2023-01-22T14:29:10.594Z,99745.94
2023-01-22T14:31:38.765Z,99751.66
2023-01-22T14:34:07.152Z,99745.50
2023-01-22T14:36:34.758Z,99752.78
2023-01-22T14:39:03.415Z,99750.37
2023-01-22T14:41:32.376Z,99748.75
2023-01-22T14:44:01.561Z,99767.44
2023-01-22T14:46:30.194Z,99774.38
2023-01-22T14:49:01.783Z,99765.63
2023-01-22T14:51:29.657Z,99775.53
2023-01-22T14:53:59.059Z,99770.44
2023-01-22T14:56:28.101Z,99773.50
2023-01-22T14:58:56.941Z,99779.44
2023-01-22T15:01:24.917Z,99788.44
2023-01-22T15:03:54.343Z,99784.50
2023-01-22T15:06:26.058Z,99791.81
2023-01-22T15:08:54.124Z,99794.72
2023-01-22T15:11:22.268Z,99794.69
2023-01-22T15:13:50.840Z,99793.66
2023-01-22T15:16:19.646Z,99799.84
2023-01-22T15:18:48.591Z,99800.78
2023-01-22T15:21:16.596Z,99803.19
2023-01-22T15:23:47.469Z,99796.44
2023-01-22T15:26:26.681Z,99800.09
2023-01-22T15:28:54.661Z,99799.47
2023-01-22T15:31:22.748Z,99805.50
2023-01-22T15:33:51.031Z,99814.88
2023-01-22T15:36:18.896Z,99805.22
2023-01-22T15:38:47.180Z,99817.09
2023-01-22T15:41:26.089Z,99818.41
2023-01-22T15:43:56.483Z,99822.97
2023-01-22T15:46:24.874Z,99824.44
2023-01-22T15:48:52.943Z,99822.19
2023-01-22T15:51:21.952Z,99826.75
2023-01-22T15:53:57.424Z,99835.41
2023-01-22T15:56:26.718Z,99826.88
2023-01-22T15:58:55.129Z,99831.31
2023-01-22T16:01:24.327Z,99834.91
2023-01-22T16:03:54.259Z,99831.13
2023-01-22T16:06:23.272Z,99832.50
2023-01-22T16:08:52.155Z,99828.25
2023-01-22T16:11:22.062Z,99834.66
2023-01-22T16:13:51.014Z,99821.75
2023-01-22T16:16:23.324Z,99835.81
2023-01-22T16:18:52.211Z,99832.84
2023-01-22T16:21:21.881Z,99833.56
2023-01-22T16:23:52.559Z,99838.75
2023-01-22T16:26:23.470Z,99833.66
2023-01-22T16:28:52.891Z,99839.47
2023-01-22T16:31:25.112Z,99850.09
2023-01-22T16:33:54.036Z,99850.94
2023-01-22T16:36:22.829Z,99853.72
2023-01-22T16:38:51.679Z,99863.53
2023-01-22T16:41:25.066Z,99870.44
2023-01-22T16:44:07.750Z,99865.41
2023-01-22T16:46:37.591Z,99866.34
2023-01-22T16:49:07.274Z,99875.00
2023-01-22T16:51:40.219Z,99873.25
2023-01-22T16:54:09.154Z,99874.22
2023-01-22T16:56:39.821Z,99878.94
2023-01-22T16:59:17.873Z,99878.03
2023-01-22T17:01:49.236Z,99881.84
2023-01-22T17:04:18.346Z,99879.37
2023-01-22T17:06:48.421Z,99876.78
2023-01-22T17:09:26.766Z,99886.53
2023-01-22T17:11:58.524Z,99883.75
2023-01-22T17:14:28.905Z,99885.53
2023-01-22T17:17:02.307Z,99893.25
2023-01-22T17:19:33.457Z,99896.69
2023-01-22T17:22:03.710Z,99894.25
2023-01-22T17:24:32.201Z,99897.88
2023-01-22T17:27:02.717Z,99895.28
2023-01-22T17:29:31.961Z,99888.28
2023-01-22T17:32:01.520Z,99898.84
2023-01-22T17:34:29.980Z,99897.09
2023-01-22T17:37:00.426Z,99909.84
2023-01-22T17:39:28.761Z,99918.50
2023-01-22T17:41:57.062Z,99920.31
2023-01-22T17:44:30.224Z,99917.00
2023-01-22T17:47:00.429Z,99933.13
2023-01-22T17:49:30.376Z,99921.94
2023-01-22T17:51:59.839Z,99940.34
2023-01-22T17:54:31.721Z,99938.41
2023-01-22T17:56:59.897Z,99943.56
2023-01-22T17:59:28.149Z,99947.16
2023-01-22T18:01:56.854Z,99948.50
2023-01-22T18:04:25.938Z,99945.81
2023-01-22T18:06:54.610Z,99943.41
2023-01-22T18:09:23.837Z,99941.72
2023-01-22T18:11:52.317Z,99941.31
2023-01-22T18:14:27.259Z,99939.66
2023-01-22T18:16:56.395Z,99937.91
2023-01-22T18:19:25.264Z,99933.97
2023-01-22T18:21:54.014Z,99944.22
2023-01-22T18:24:24.584Z,99929.69
2023-01-22T18:26:55.348Z,99940.03
2023-01-22T18:29:24.411Z,99945.53
2023-01-22T18:31:52.424Z,99938.44
2023-01-22T18:34:21.206Z,99937.16
2023-01-22T18:36:50.211Z,99945.56
2023-01-22T18:39:19.341Z,99945.25
2023-01-22T18:41:47.921Z,99953.22
2023-01-22T18:44:17.980Z,99946.78
2023-01-22T18:46:48.568Z,99945.66
2023-01-22T18:49:19.063Z,99944.50
2023-01-22T18:51:47.714Z,99947.75
2023-01-22T18:54:18.631Z,99950.00
2023-01-22T18:56:47.522Z,99958.38
2023-01-22T18:59:16.453Z,99958.97
2023-01-22T19:01:52.263Z,99947.59
2023-01-22T19:04:23.701Z,99948.03
2023-01-22T19:06:52.986Z,99939.34
2023-01-22T19:09:22.011Z,99935.28
2023-01-22T19:11:52.624Z,99904.47
2023-01-22T19:14:21.345Z,99899.91
2023-01-22T19:16:52.670Z,99899.22
2023-01-22T19:19:23.389Z,99901.44
2023-01-22T19:21:53.384Z,99913.16
2023-01-22T19:24:25.867Z,99944.88
2023-01-22T19:26:55.716Z,99957.63
2023-01-22T19:29:26.751Z,99962.41
2023-01-22T19:31:58.845Z,99973.91
2023-01-22T19:34:32.513Z,99975.16
2023-01-22T19:37:07.396Z,99985.87
2023-01-22T19:39:37.939Z,99972.69
2023-01-22T19:42:07.505Z,99987.66
2023-01-22T19:44:36.176Z,99982.97
2023-01-22T19:47:05.723Z,99980.97
2023-01-22T19:49:35.186Z,99992.78
2023-01-22T19:52:03.622Z,99992.03
2023-01-22T19:54:32.155Z,99987.63
2023-01-22T19:57:00.743Z,99987.06
2023-01-22T19:59:36.807Z,99992.09
2023-01-22T20:02:08.168Z,99995.78
2023-01-22T20:04:41.094Z,99994.31
2023-01-22T20:07:11.697Z,100003.16
2023-01-22T20:09:40.733Z,100003.16
2023-01-22T20:12:11.539Z,99991.47
2023-01-22T20:14:43.415Z,99986.97
2023-01-22T20:17:13.620Z,99989.03
2023-01-22T20:19:42.733Z,99987.69
2023-01-22T20:22:11.204Z,99991.88
2023-01-22T20:24:44.446Z,99988.66
2023-01-22T20:27:16.618Z,99999.81
2023-01-22T20:29:51.864Z,99993.75
2023-01-22T20:32:21.079Z,99998.88
2023-01-22T20:34:54.225Z,99990.62
2023-01-22T20:37:31.989Z,99987.97
2023-01-22T20:40:03.989Z,99992.75
2023-01-22T20:42:32.526Z,99992.38
2023-01-22T20:45:10.158Z,100001.91
2023-01-22T20:47:39.398Z,99998.66
2023-01-22T20:50:16.619Z,100006.75
2023-01-22T20:52:45.432Z,99998.22
2023-01-22T20:55:15.630Z,99996.72
2023-01-22T20:57:43.884Z,100007.47
2023-01-22T21:00:15.408Z,99995.09
2023-01-22T21:02:44.600Z,100013.53
2023-01-22T21:05:13.144Z,100008.84
2023-01-22T21:07:44.847Z,100007.41
2023-01-22T21:10:15.220Z,100013.75
2023-01-22T21:12:43.710Z,100017.25
2023-01-22T21:15:13.321Z,100014.44
2023-01-22T21:17:42.043Z,100007.50
2023-01-22T21:20:11.176Z,100006.37
2023-01-22T21:22:39.563Z,100003.31
2023-01-22T21:25:09.189Z,100006.59
2023-01-22T21:27:36.992Z,100002.44
2023-01-22T21:30:05.214Z,100003.09
2023-01-22T21:32:33.778Z,100004.03
2023-01-22T21:35:01.684Z,100007.16
2023-01-22T21:37:29.547Z,100004.31
2023-01-22T21:39:57.965Z,99997.28
2023-01-22T21:42:44.526Z,100004.91
2023-01-22T21:45:32.684Z,100003.66
2023-01-22T21:48:00.136Z,100007.84
2023-01-22T21:50:27.637Z,100008.66
2023-01-22T21:52:55.026Z,100002.13
2023-01-22T21:55:23.559Z,99999.88
2023-01-22T21:57:51.455Z,100000.66
2023-01-22T22:00:19.856Z,100018.34
2023-01-22T22:02:47.456Z,100019.22
2023-01-22T22:05:14.713Z,100020.66
2023-01-22T22:07:41.895Z,100017.38
2023-01-22T22:10:12.589Z,100013.13
2023-01-22T22:12:39.794Z,100012.28
2023-01-22T22:15:09.838Z,100007.78
2023-01-22T22:17:37.422Z,100006.06
2023-01-22T22:20:05.218Z,100009.41
2023-01-22T22:22:32.608Z,100007.25
2023-01-22T22:25:00.334Z,99998.50
2023-01-22T22:27:28.179Z,100008.06
2023-01-22T22:29:55.512Z,100010.06
2023-01-22T22:32:22.985Z,100006.06
2023-01-22T22:34:50.174Z,100010.06
2023-01-22T22:37:17.492Z,100002.69
2023-01-22T22:39:44.932Z,100004.78
2023-01-22T22:42:12.086Z,99999.59
2023-01-22T22:44:39.270Z,99994.72
2023-01-22T22:47:06.731Z,99994.91
2023-01-22T22:49:33.884Z,99982.94
2023-01-22T22:52:01.122Z,99975.09
2023-01-22T22:54:29.929Z,99984.59
2023-01-22T22:57:00.366Z,99986.03
2023-01-22T22:59:28.911Z,99982.44
2023-01-22T23:01:57.065Z,99987.25
2023-01-22T23:04:24.289Z,99982.75
2023-01-22T23:06:52.035Z,99977.87
2023-01-22T23:09:20.099Z,99985.75
2023-01-22T23:11:47.544Z,99994.63
2023-01-22T23:14:14.674Z,99981.94
2023-01-22T23:16:42.622Z,99988.88
2023-01-22T23:19:17.487Z,99996.25
2023-01-22T23:21:46.532Z,99987.03
2023-01-22T23:24:13.982Z,99995.97
2023-01-22T23:26:41.717Z,100013.09
2023-01-22T23:29:10.351Z,100013.13
2023-01-22T23:31:38.405Z,100006.75
2023-01-22T23:34:07.279Z,100006.69
2023-01-22T23:36:35.824Z,99998.38
2023-01-22T23:39:03.586Z,100001.78
2023-01-22T23:41:30.733Z,100010.63
2023-01-22T23:43:58.230Z,100002.19
2023-01-22T23:46:27.088Z,100006.78
2023-01-22T23:48:54.743Z,99999.00
2023-01-22T23:51:22.248Z,100000.91
2023-01-22T23:53:52.799Z,99998.72
2023-01-22T23:56:21.102Z,99999.44
2023-01-22T23:58:48.547Z,100001.81
